createdAt,value
2023-03-23T00:00:22.234Z,11.2
2023-03-23T00:01:23.214Z,11.1
2023-03-23T00:02:24.239Z,11
2023-03-23T00:03:25.256Z,10.9
2023-03-23T00:04:26.215Z,10.9
2023-03-23T00:05:27.260Z,10.9
2023-03-23T00:06:28.236Z,10.9
2023-03-23T00:07:29.256Z,10.9
2023-03-23T00:08:30.264Z,11
2023-03-23T00:09:31.276Z,11
2023-03-23T00:10:32.275Z,11
2023-03-23T00:11:33.280Z,11
2023-03-23T00:12:34.267Z,11.1
2023-03-23T00:13:35.240Z,11.1
2023-03-23T00:14:36.251Z,11.1
2023-03-23T00:15:37.256Z,11.1
2023-03-23T00:16:38.230Z,11.2
2023-03-23T00:17:39.286Z,11.2
2023-03-23T00:18:40.228Z,11.2
2023-03-23T00:19:41.308Z,11.2
2023-03-23T00:20:42.203Z,11.2
2023-03-23T00:21:43.229Z,11.1
2023-03-23T00:22:44.235Z,11.2
2023-03-23T00:23:45.240Z,11.2
2023-03-23T00:24:46.340Z,11.2
2023-03-23T00:25:47.235Z,11.2
2023-03-23T00:26:48.470Z,11.1
2023-03-23T00:27:49.210Z,11.1
2023-03-23T00:28:50.275Z,11.1
2023-03-23T00:29:51.255Z,11.1
2023-03-23T00:30:52.236Z,11.1
2023-03-23T00:31:53.237Z,11.1
2023-03-23T00:32:54.236Z,11
2023-03-23T00:33:55.212Z,10.9
2023-03-23T00:34:56.615Z,10.9
2023-03-23T00:35:57.307Z,11
2023-03-23T00:36:58.258Z,11
2023-03-23T00:37:59.277Z,11.1
2023-03-23T00:39:00.247Z,11
2023-03-23T00:40:01.297Z,11.1
2023-03-23T00:41:02.237Z,11
2023-03-23T00:42:03.364Z,11
2023-03-23T00:43:04.259Z,11
2023-03-23T00:44:05.278Z,11
2023-03-23T00:45:06.227Z,11.1
2023-03-23T00:46:07.298Z,11.1
2023-03-23T00:47:08.338Z,11.1
2023-03-23T00:48:09.226Z,11.1
2023-03-23T00:49:10.275Z,11.1
2023-03-23T00:50:11.300Z,11.1
2023-03-23T00:51:12.267Z,11.1
2023-03-23T00:52:13.302Z,11.1
2023-03-23T00:53:14.278Z,11.2
2023-03-23T00:54:15.258Z,11.2
2023-03-23T00:55:16.277Z,11.2
2023-03-23T00:56:17.239Z,11.3
2023-03-23T00:57:18.285Z,11.3
2023-03-23T00:58:19.280Z,11.4
2023-03-23T00:59:20.307Z,11.4
2023-03-23T01:00:21.231Z,11.4
2023-03-23T01:01:22.258Z,11.5
2023-03-23T01:02:23.211Z,11.5
2023-03-23T01:03:24.275Z,11.5
2023-03-23T01:04:25.262Z,11.5
2023-03-23T01:05:26.262Z,11.5
2023-03-23T01:06:27.257Z,11.5
2023-03-23T01:07:28.261Z,11.5
2023-03-23T01:08:29.256Z,11.5
2023-03-23T01:09:30.286Z,11.5
2023-03-23T01:10:31.639Z,11.6
2023-03-23T01:11:32.257Z,11.6
2023-03-23T01:12:33.283Z,11.7
2023-03-23T01:13:34.297Z,11.7
2023-03-23T01:14:35.276Z,11.7
2023-03-23T01:15:36.316Z,11.7
2023-03-23T01:16:37.319Z,11.7
2023-03-23T01:17:38.354Z,11.7
2023-03-23T01:18:39.294Z,11.8
2023-03-23T01:19:40.283Z,11.8
2023-03-23T01:20:41.296Z,11.8
2023-03-23T01:21:42.255Z,11.8
2023-03-23T01:22:43.259Z,11.9
2023-03-23T01:23:44.256Z,11.8
2023-03-23T01:24:45.278Z,11.8
2023-03-23T01:25:46.258Z,11.9
2023-03-23T01:26:47.316Z,11.9
2023-03-23T01:27:48.324Z,12
2023-03-23T01:28:49.284Z,12
2023-03-23T01:29:50.275Z,12
2023-03-23T01:30:51.248Z,12.1
2023-03-23T01:31:52.256Z,12.1
2023-03-23T01:32:53.357Z,12.2
2023-03-23T01:33:54.279Z,12.2
2023-03-23T01:34:55.278Z,12.2
2023-03-23T01:35:56.783Z,12.2
2023-03-23T01:36:58.288Z,12.2
2023-03-23T01:37:59.335Z,12.1
2023-03-23T01:39:00.299Z,12.2
2023-03-23T01:40:01.301Z,12.2
2023-03-23T01:41:02.277Z,12.2
2023-03-23T01:42:03.256Z,12.2
2023-03-23T01:43:04.313Z,12.2
2023-03-23T01:44:05.278Z,12.2
2023-03-23T01:45:06.371Z,12.2
2023-03-23T01:46:07.299Z,12.2
2023-03-23T01:47:08.280Z,12.2
2023-03-23T01:48:09.330Z,12.2
2023-03-23T01:49:10.280Z,12.2
2023-03-23T01:50:11.431Z,12.2
2023-03-23T01:51:12.322Z,12.2
2023-03-23T01:52:13.322Z,12.2
2023-03-23T01:53:14.299Z,12.2
2023-03-23T01:54:15.259Z,12.2
2023-03-23T01:55:16.354Z,12.2
2023-03-23T01:56:17.261Z,12.2
2023-03-23T01:57:18.302Z,12.2
2023-03-23T01:58:19.307Z,12.2
2023-03-23T01:59:20.301Z,12.2
2023-03-23T02:00:21.390Z,12.2
2023-03-23T02:01:22.340Z,12.1
2023-03-23T02:02:23.328Z,12.1
2023-03-23T02:03:24.302Z,12.1
2023-03-23T02:04:25.314Z,12
2023-03-23T02:05:26.299Z,12
2023-03-23T02:06:27.306Z,12
2023-03-23T02:07:28.330Z,12.1
2023-03-23T02:08:29.301Z,12
2023-03-23T02:09:30.309Z,12.1
2023-03-23T02:10:31.321Z,12.1
2023-03-23T02:11:32.332Z,12.1
2023-03-23T02:12:33.308Z,12.1
2023-03-23T02:13:34.365Z,12.1
2023-03-23T02:14:35.321Z,12.1
2023-03-23T02:15:36.308Z,12.1
2023-03-23T02:16:37.360Z,12
2023-03-23T02:17:38.361Z,12.1
2023-03-23T02:18:39.304Z,12.1
2023-03-23T02:19:40.299Z,12.1
2023-03-23T02:20:41.299Z,12.1
2023-03-23T02:21:42.418Z,12.1
2023-03-23T02:22:43.299Z,12
2023-03-23T02:23:44.278Z,12
2023-03-23T02:24:45.302Z,12
2023-03-23T02:25:46.300Z,12
2023-03-23T02:26:47.339Z,12
2023-03-23T02:27:48.310Z,12
2023-03-23T02:28:49.379Z,12
2023-03-23T02:29:50.319Z,12
2023-03-23T02:30:51.283Z,12
2023-03-23T02:31:52.329Z,12.1
2023-03-23T02:32:53.378Z,12.1
2023-03-23T02:33:54.317Z,12.1
2023-03-23T02:34:55.320Z,12.1
2023-03-23T02:35:56.878Z,12.1
2023-03-23T02:36:58.319Z,12.1
2023-03-23T02:37:59.380Z,12.1
2023-03-23T02:39:00.321Z,12
2023-03-23T02:40:01.361Z,12.1
2023-03-23T02:41:02.318Z,12
2023-03-23T02:42:03.421Z,12
2023-03-23T02:43:04.380Z,12.1
2023-03-23T02:44:05.392Z,12.1
2023-03-23T02:45:06.346Z,12.1
2023-03-23T02:46:07.311Z,12.2
2023-03-23T02:47:08.347Z,12.1
2023-03-23T02:48:09.327Z,12.1
2023-03-23T02:49:10.318Z,12.1
2023-03-23T02:50:11.321Z,12.1
2023-03-23T02:51:12.317Z,12.1
2023-03-23T02:52:13.338Z,12.1
2023-03-23T02:53:14.378Z,12.1
2023-03-23T02:54:15.379Z,12.1
2023-03-23T02:55:16.317Z,12.2
2023-03-23T02:56:17.337Z,12.2
2023-03-23T02:57:18.346Z,12.2
2023-03-23T02:58:19.296Z,12.1
2023-03-23T02:59:20.485Z,12.1
2023-03-23T03:00:21.300Z,12.1
2023-03-23T03:01:22.357Z,12.1
2023-03-23T03:02:23.320Z,12.2
2023-03-23T03:03:24.316Z,12.1
2023-03-23T03:04:25.303Z,12.1
2023-03-23T03:05:26.339Z,12.1
2023-03-23T03:06:27.356Z,12.2
2023-03-23T03:07:28.335Z,12.1
2023-03-23T03:08:29.377Z,12.1
2023-03-23T03:09:30.333Z,12.1
2023-03-23T03:10:31.341Z,12.1
2023-03-23T03:11:32.336Z,12.1
2023-03-23T03:12:33.348Z,12
2023-03-23T03:13:34.364Z,12
2023-03-23T03:14:35.344Z,12
2023-03-23T03:15:36.353Z,12
2023-03-23T03:16:37.315Z,11.9
2023-03-23T03:17:38.336Z,11.9
2023-03-23T03:18:39.341Z,12
2023-03-23T03:19:40.337Z,12
2023-03-23T03:20:41.449Z,11.9
2023-03-23T03:21:42.340Z,12
2023-03-23T03:22:43.346Z,11.9
2023-03-23T03:23:44.364Z,11.8
2023-03-23T03:24:45.358Z,11.8
2023-03-23T03:25:46.357Z,11.8
2023-03-23T03:26:47.359Z,11.9
2023-03-23T03:27:48.371Z,12.1
2023-03-23T03:28:49.382Z,12
2023-03-23T03:29:50.321Z,11.9
2023-03-23T03:30:51.392Z,12
2023-03-23T03:31:52.339Z,12.1
2023-03-23T03:32:53.359Z,12
2023-03-23T03:33:54.339Z,12.1
2023-03-23T03:34:55.341Z,12.2
2023-03-23T03:35:56.404Z,12.2
2023-03-23T03:36:57.320Z,12.3
2023-03-23T03:37:58.340Z,12.3
2023-03-23T03:38:59.398Z,12.3
2023-03-23T03:40:00.353Z,12.3
2023-03-23T03:41:01.325Z,12.3
2023-03-23T03:42:02.340Z,12.4
2023-03-23T03:43:03.364Z,12.5
2023-03-23T03:44:04.355Z,12.6
2023-03-23T03:45:05.430Z,12.7
2023-03-23T03:46:06.368Z,12.6
2023-03-23T03:47:07.319Z,12.6
2023-03-23T03:48:08.382Z,12.6
2023-03-23T03:49:09.421Z,12.6
2023-03-23T03:50:10.359Z,12.7
2023-03-23T03:51:11.363Z,12.7
2023-03-23T03:52:12.367Z,12.6
2023-03-23T03:53:13.327Z,12.7
2023-03-23T03:54:14.419Z,12.7
2023-03-23T03:55:15.380Z,12.7
2023-03-23T03:56:16.399Z,12.7
2023-03-23T03:57:17.363Z,12.6
2023-03-23T03:58:18.380Z,12.6
2023-03-23T03:59:21.790Z,12.7
2023-03-23T04:00:20.385Z,12.7
2023-03-23T04:01:21.350Z,12.7
2023-03-23T04:02:22.380Z,12.7
2023-03-23T04:03:23.360Z,12.6
2023-03-23T04:04:24.436Z,12.7
2023-03-23T04:05:25.443Z,12.7
2023-03-23T04:06:26.380Z,12.6
2023-03-23T04:07:27.386Z,12.6
2023-03-23T04:08:28.395Z,12.6
2023-03-23T04:09:29.359Z,12.6
2023-03-23T04:10:32.570Z,12.7
2023-03-23T04:11:32.359Z,12.5
2023-03-23T04:12:32.388Z,12.4
2023-03-23T04:13:33.370Z,12.4
2023-03-23T04:14:34.428Z,12.4
2023-03-23T04:15:35.385Z,12.5
2023-03-23T04:16:36.369Z,12.5
2023-03-23T04:17:37.378Z,12.4
2023-03-23T04:18:38.363Z,12.5
2023-03-23T04:19:39.400Z,12.6
2023-03-23T04:20:40.401Z,12.6
2023-03-23T04:21:41.368Z,12.7
2023-03-23T04:22:42.410Z,12.7
2023-03-23T04:23:43.395Z,12.7
2023-03-23T04:24:55.937Z,12.6
2023-03-23T04:25:45.379Z,12.7
2023-03-23T04:26:46.379Z,12.7
2023-03-23T04:27:47.417Z,12.7
2023-03-23T04:28:48.420Z,12.7
2023-03-23T04:29:49.362Z,12.7
2023-03-23T04:30:50.486Z,12.7
2023-03-23T04:31:51.348Z,12.7
2023-03-23T04:32:52.444Z,12.7
2023-03-23T04:33:57.606Z,12.6
2023-03-23T04:34:54.363Z,12.6
2023-03-23T04:35:55.419Z,12.6
2023-03-23T04:36:57.321Z,12.7
2023-03-23T04:37:57.442Z,12.7
2023-03-23T04:38:58.364Z,12.6
2023-03-23T04:39:59.400Z,12.5
2023-03-23T04:41:00.384Z,12.6
2023-03-23T04:42:01.400Z,12.5
2023-03-23T04:43:02.459Z,12.6
2023-03-23T04:44:03.397Z,12.6
2023-03-23T04:45:04.486Z,12.7
2023-03-23T04:46:05.405Z,12.7
2023-03-23T04:47:06.379Z,12.8
2023-03-23T04:48:07.400Z,12.7
2023-03-23T04:49:08.400Z,12.7
2023-03-23T04:50:09.441Z,12.7
2023-03-23T04:51:10.409Z,12.5
2023-03-23T04:52:11.400Z,12.6
2023-03-23T04:53:12.428Z,12.6
2023-03-23T04:54:13.381Z,12.7
2023-03-23T04:55:14.417Z,12.7
2023-03-23T04:56:15.390Z,12.7
2023-03-23T04:57:16.393Z,12.7
2023-03-23T04:58:17.361Z,12.7
2023-03-23T04:59:18.378Z,12.8
2023-03-23T05:00:19.463Z,12.9
2023-03-23T05:01:20.426Z,12.9
2023-03-23T05:02:21.440Z,12.8
2023-03-23T05:03:22.380Z,12.8
2023-03-23T05:04:23.409Z,12.8
2023-03-23T05:05:24.443Z,12.8
2023-03-23T05:06:25.420Z,12.7
2023-03-23T05:07:26.440Z,12.8
2023-03-23T05:08:27.420Z,12.8
2023-03-23T05:09:28.380Z,12.9
2023-03-23T05:10:29.440Z,12.9
2023-03-23T05:11:30.428Z,12.9
2023-03-23T05:12:31.425Z,12.8
2023-03-23T05:13:32.379Z,12.8
2023-03-23T05:14:33.424Z,12.8
2023-03-23T05:15:34.427Z,12.8
2023-03-23T05:16:35.424Z,12.8
2023-03-23T05:17:36.399Z,12.7
2023-03-23T05:18:37.415Z,12.7
2023-03-23T05:19:38.462Z,12.7
2023-03-23T05:20:39.479Z,12.8
2023-03-23T05:21:40.419Z,12.8
2023-03-23T05:22:41.399Z,12.9
2023-03-23T05:23:42.378Z,12.8
2023-03-23T05:24:43.420Z,12.8
2023-03-23T05:25:44.447Z,12.8
2023-03-23T05:26:45.397Z,12.8
2023-03-23T05:27:46.419Z,12.8
2023-03-23T05:28:47.391Z,12.7
2023-03-23T05:29:48.420Z,12.7
2023-03-23T05:30:49.447Z,12.8
2023-03-23T05:31:53.172Z,12.9
2023-03-23T05:32:54.441Z,13
2023-03-23T05:33:55.418Z,13
2023-03-23T05:34:56.405Z,13
2023-03-23T05:35:57.432Z,13.2
2023-03-23T05:36:58.441Z,13.1
2023-03-23T05:37:59.395Z,13.1
2023-03-23T05:39:00.419Z,13.2
2023-03-23T05:40:01.457Z,13.1
2023-03-23T05:41:02.454Z,13.2
2023-03-23T05:42:03.417Z,13.1
2023-03-23T05:43:04.465Z,13.1
2023-03-23T05:44:05.416Z,13.1
2023-03-23T05:45:06.405Z,13
2023-03-23T05:46:07.400Z,13
2023-03-23T05:47:08.462Z,13
2023-03-23T05:48:09.402Z,13.1
2023-03-23T05:49:10.414Z,13.1
2023-03-23T05:50:11.436Z,13.1
2023-03-23T05:51:12.440Z,13.1
2023-03-23T05:52:13.415Z,13
2023-03-23T05:53:14.436Z,13
2023-03-23T05:54:15.415Z,13
2023-03-23T05:55:16.418Z,13.1
2023-03-23T05:56:17.458Z,13.1
2023-03-23T05:57:18.430Z,13.2
2023-03-23T05:58:19.437Z,13.2
2023-03-23T05:59:20.438Z,13.2
2023-03-23T06:00:21.417Z,13.2
2023-03-23T06:01:22.437Z,13.1
2023-03-23T06:02:23.463Z,13
2023-03-23T06:03:24.460Z,13.1
2023-03-23T06:04:25.445Z,13.1
2023-03-23T06:05:26.445Z,13.1
2023-03-23T06:06:27.414Z,13.1
2023-03-23T06:07:28.545Z,13.2
2023-03-23T06:08:29.426Z,13.2
2023-03-23T06:09:30.401Z,13.2
2023-03-23T06:10:31.431Z,13.2
2023-03-23T06:11:32.416Z,13.3
2023-03-23T06:12:33.486Z,13.2
2023-03-23T06:13:34.437Z,13
2023-03-23T06:14:35.468Z,12.8
2023-03-23T06:15:36.385Z,12.8
2023-03-23T06:16:37.461Z,12.7
2023-03-23T06:17:38.463Z,12.8
2023-03-23T06:18:39.439Z,13
2023-03-23T06:19:40.439Z,13
2023-03-23T06:20:41.358Z,13
2023-03-23T06:21:42.685Z,13.1
2023-03-23T06:22:43.419Z,13.2
2023-03-23T06:23:44.438Z,13.3
2023-03-23T06:24:45.438Z,13.3
2023-03-23T06:25:46.625Z,13.4
2023-03-23T06:26:47.458Z,13.5
2023-03-23T06:27:48.459Z,13.5
2023-03-23T06:28:49.461Z,13.6
2023-03-23T06:29:50.478Z,13.7
2023-03-23T06:30:51.430Z,13.7
2023-03-23T06:31:52.478Z,13.8
2023-03-23T06:32:53.565Z,13.8
2023-03-23T06:33:54.462Z,13.7
2023-03-23T06:34:55.440Z,13.6
2023-03-23T06:35:56.425Z,13.4
2023-03-23T06:36:57.454Z,13.4
2023-03-23T06:37:58.424Z,13.4
2023-03-23T06:38:59.456Z,13.4
2023-03-23T06:40:00.494Z,13.4
2023-03-23T06:41:01.446Z,13.5
2023-03-23T06:42:02.465Z,13.5
2023-03-23T06:43:03.440Z,13.6
2023-03-23T06:44:04.460Z,13.6
2023-03-23T06:45:05.442Z,13.7
2023-03-23T06:46:06.479Z,13.7
2023-03-23T06:47:07.445Z,13.7
2023-03-23T06:48:08.478Z,13.8
2023-03-23T06:49:09.464Z,13.8
2023-03-23T06:50:10.436Z,13.8
2023-03-23T06:51:11.442Z,13.9
2023-03-23T06:52:12.502Z,13.9
2023-03-23T06:53:13.493Z,13.9
2023-03-23T06:54:14.403Z,13.9
2023-03-23T06:55:15.500Z,13.9
2023-03-23T06:56:16.468Z,14
2023-03-23T06:57:17.434Z,14
2023-03-23T06:58:18.450Z,14.1
2023-03-23T06:59:19.436Z,14.1
2023-03-23T07:00:20.523Z,14
2023-03-23T07:01:21.499Z,13.9
2023-03-23T07:02:22.421Z,13.9
2023-03-23T07:03:23.599Z,14
2023-03-23T07:04:24.474Z,14
2023-03-23T07:05:25.477Z,14
2023-03-23T07:06:26.491Z,14
2023-03-23T07:07:27.475Z,13.9
2023-03-23T07:08:28.448Z,13.9
2023-03-23T07:09:41.198Z,13.9
2023-03-23T07:10:30.429Z,13.8
2023-03-23T07:11:31.527Z,13.8
2023-03-23T07:12:32.492Z,13.8
2023-03-23T07:13:33.431Z,13.9
2023-03-23T07:14:34.544Z,14
2023-03-23T07:15:35.480Z,14.1
2023-03-23T07:16:36.444Z,14.2
2023-03-23T07:17:37.480Z,14.2
2023-03-23T07:18:38.528Z,14.2
2023-03-23T07:19:39.528Z,14.2
2023-03-23T07:20:40.449Z,14.2
2023-03-23T07:21:41.513Z,14.4
2023-03-23T07:22:42.756Z,14.5
2023-03-23T07:23:43.469Z,14.6
2023-03-23T07:24:44.478Z,14.5
2023-03-23T07:25:45.464Z,14.5
2023-03-23T07:26:46.483Z,14.6
2023-03-23T07:27:47.483Z,14.6
2023-03-23T07:28:48.541Z,14.6
2023-03-23T07:29:49.472Z,14.7
2023-03-23T07:30:50.500Z,14.7
2023-03-23T07:31:51.488Z,14.8
2023-03-23T07:32:52.435Z,14.8
2023-03-23T07:33:53.510Z,14.8
2023-03-23T07:34:54.446Z,14.8
2023-03-23T07:35:55.549Z,14.9
2023-03-23T07:36:56.547Z,14.9
2023-03-23T07:37:57.480Z,14.8
2023-03-23T07:38:59.015Z,14.8
2023-03-23T07:40:00.483Z,14.9
2023-03-23T07:41:01.489Z,14.8
2023-03-23T07:42:02.478Z,14.9
2023-03-23T07:43:03.477Z,14.9
2023-03-23T07:44:04.463Z,14.9
2023-03-23T07:45:05.479Z,14.8
2023-03-23T07:46:06.494Z,14.9
2023-03-23T07:47:07.547Z,15
2023-03-23T07:48:15.850Z,15.1
2023-03-23T07:49:09.498Z,15.1
2023-03-23T07:50:10.690Z,15.1
2023-03-23T07:51:12.418Z,15.1
2023-03-23T07:52:13.553Z,15.2
2023-03-23T07:53:14.470Z,15.1
2023-03-23T07:54:15.472Z,15.1
2023-03-23T07:55:16.481Z,15.1
2023-03-23T07:56:17.496Z,15
2023-03-23T07:57:18.507Z,14.9
2023-03-23T07:58:19.502Z,14.8
2023-03-23T07:59:20.453Z,14.8
2023-03-23T08:00:21.543Z,14.8
2023-03-23T08:01:22.525Z,14.8
2023-03-23T08:02:23.465Z,14.9
2023-03-23T08:03:24.589Z,14.9
2023-03-23T08:04:25.564Z,15
2023-03-23T08:05:26.540Z,15
2023-03-23T08:06:27.463Z,15.1
2023-03-23T08:07:28.503Z,15.2
2023-03-23T08:08:29.481Z,15.2
2023-03-23T08:09:30.488Z,15.2
2023-03-23T08:10:31.515Z,15.1
2023-03-23T08:11:32.488Z,15.1
2023-03-23T08:12:33.469Z,14.9
2023-03-23T08:13:34.888Z,14.9
2023-03-23T08:14:35.458Z,14.9
2023-03-23T08:15:36.510Z,15
2023-03-23T08:16:37.513Z,15.1
2023-03-23T08:17:38.493Z,15.1
2023-03-23T08:18:39.582Z,15.2
2023-03-23T08:19:40.661Z,15.1
2023-03-23T08:20:41.521Z,15.2
2023-03-23T08:21:42.507Z,15.2
2023-03-23T08:22:51.372Z,15.2
2023-03-23T08:23:44.545Z,15.2
2023-03-23T08:24:45.487Z,15.2
2023-03-23T08:25:46.517Z,15.2
2023-03-23T08:26:47.508Z,15.2
2023-03-23T08:27:48.536Z,15.3
2023-03-23T08:28:49.596Z,15.3
2023-03-23T08:29:50.493Z,15.4
2023-03-23T08:30:51.559Z,15.4
2023-03-23T08:31:52.574Z,15.4
2023-03-23T08:32:53.582Z,15.5
2023-03-23T08:33:54.543Z,15.5
2023-03-23T08:34:55.558Z,15.6
2023-03-23T08:35:56.512Z,15.5
2023-03-23T08:36:57.488Z,15.5
2023-03-23T08:37:58.583Z,15.5
2023-03-23T08:38:59.936Z,15.6
2023-03-23T08:40:01.587Z,15.6
2023-03-23T08:41:02.529Z,15.5
2023-03-23T08:42:03.518Z,15.5
2023-03-23T08:43:04.585Z,15.6
2023-03-23T08:44:05.521Z,15.4
2023-03-23T08:45:06.540Z,15.3
2023-03-23T08:46:07.540Z,15.3
2023-03-23T08:47:08.540Z,15.4
2023-03-23T08:48:09.569Z,15.6
2023-03-23T08:49:10.585Z,15.7
2023-03-23T08:50:11.549Z,15.8
2023-03-23T08:51:12.497Z,16
2023-03-23T08:52:13.497Z,16
2023-03-23T08:53:14.523Z,15.9
2023-03-23T08:54:15.486Z,15.9
2023-03-23T08:55:16.534Z,15.8
2023-03-23T08:56:17.576Z,15.8
2023-03-23T08:57:18.555Z,15.8
2023-03-23T08:58:19.684Z,15.9
2023-03-23T08:59:20.497Z,15.9
2023-03-23T09:00:21.515Z,15.7
2023-03-23T09:01:22.582Z,15.6
2023-03-23T09:02:23.549Z,15.5
2023-03-23T09:03:24.515Z,15.6
2023-03-23T09:04:25.523Z,15.6
2023-03-23T09:05:26.543Z,15.6
2023-03-23T09:06:28.901Z,15.6
2023-03-23T09:07:28.518Z,15.7
2023-03-23T09:08:29.535Z,15.7
2023-03-23T09:09:30.555Z,15.7
2023-03-23T09:10:31.539Z,15.8
2023-03-23T09:11:32.500Z,15.9
2023-03-23T09:12:33.574Z,15.8
2023-03-23T09:13:34.486Z,15.9
2023-03-23T09:14:35.522Z,15.9
2023-03-23T09:15:41.070Z,16.1
2023-03-23T09:16:37.500Z,16
2023-03-23T09:17:38.554Z,16
2023-03-23T09:18:39.594Z,16.1
2023-03-23T09:19:40.557Z,16.1
2023-03-23T09:20:41.734Z,16.1
2023-03-23T09:21:42.537Z,16.1
2023-03-23T09:22:43.582Z,16
2023-03-23T09:23:47.579Z,16
2023-03-23T09:24:48.595Z,15.8
2023-03-23T09:25:49.539Z,15.9
2023-03-23T09:26:50.544Z,15.9
2023-03-23T09:27:51.575Z,16
2023-03-23T09:28:52.576Z,16.1
2023-03-23T09:29:53.596Z,16.1
2023-03-23T09:30:54.562Z,16.2
2023-03-23T09:31:55.524Z,16.2
2023-03-23T09:32:56.525Z,16.1
2023-03-23T09:33:57.580Z,16.1
2023-03-23T09:34:58.609Z,16.2
2023-03-23T09:36:00.036Z,16.3
2023-03-23T09:37:01.575Z,16.4
2023-03-23T09:38:02.564Z,16.4
2023-03-23T09:39:03.560Z,16.4
2023-03-23T09:40:06.645Z,16.4
2023-03-23T09:41:05.596Z,16.4
2023-03-23T09:42:06.571Z,16.4
2023-03-23T09:43:07.585Z,16.3
2023-03-23T09:44:08.549Z,16.2
2023-03-23T09:45:09.612Z,16.2
2023-03-23T09:46:10.589Z,16.3
2023-03-23T09:47:11.560Z,16.3
2023-03-23T09:48:12.580Z,16.3
2023-03-23T09:49:13.533Z,16.4
2023-03-23T09:50:14.605Z,16.4
2023-03-23T09:51:15.566Z,16.5
2023-03-23T09:52:16.556Z,16.7
2023-03-23T09:53:18.508Z,16.7
2023-03-23T09:54:18.551Z,16.6
2023-03-23T09:55:19.540Z,16.6
2023-03-23T09:56:20.565Z,16.5
2023-03-23T09:57:21.542Z,16.4
2023-03-23T09:58:22.545Z,16.3
2023-03-23T09:59:23.558Z,16.2
2023-03-23T10:00:24.598Z,16.3
2023-03-23T10:01:25.653Z,16.3
2023-03-23T10:02:26.582Z,16.4
2023-03-23T10:03:27.542Z,16.5
2023-03-23T10:04:28.581Z,16.6
2023-03-23T10:05:29.553Z,16.8
2023-03-23T10:06:30.641Z,16.9
2023-03-23T10:07:31.558Z,17
2023-03-23T10:08:32.644Z,17
2023-03-23T10:09:33.533Z,17.1
2023-03-23T10:10:34.578Z,17.1
2023-03-23T10:11:35.597Z,17.1
2023-03-23T10:12:36.592Z,17
2023-03-23T10:13:37.726Z,17
2023-03-23T10:14:38.643Z,17
2023-03-23T10:15:39.694Z,17.1
2023-03-23T10:16:40.582Z,17.1
2023-03-23T10:17:41.588Z,17.1
2023-03-23T10:18:42.543Z,17.1
2023-03-23T10:19:43.617Z,17.2
2023-03-23T10:20:44.595Z,17.2
2023-03-23T10:21:45.630Z,17.2
2023-03-23T10:22:46.599Z,17.1
2023-03-23T10:23:47.557Z,17
2023-03-23T10:24:48.590Z,17
2023-03-23T10:25:49.625Z,17
2023-03-23T10:26:50.612Z,17
2023-03-23T10:27:51.581Z,17
2023-03-23T10:28:52.544Z,16.9
2023-03-23T10:29:53.622Z,16.9
2023-03-23T10:30:54.542Z,16.9
2023-03-23T10:31:55.779Z,16.8
2023-03-23T10:32:57.379Z,16.8
2023-03-23T10:33:58.635Z,16.7
2023-03-23T10:35:00.155Z,16.6
2023-03-23T10:36:01.643Z,16.3
2023-03-23T10:37:02.639Z,16.1
2023-03-23T10:38:03.599Z,16
2023-03-23T10:39:04.583Z,16
2023-03-23T10:40:05.618Z,16
2023-03-23T10:41:06.596Z,16.1
2023-03-23T10:42:07.580Z,16.1
2023-03-23T10:43:08.639Z,16.1
2023-03-23T10:44:09.593Z,16
2023-03-23T10:45:10.650Z,16.1
2023-03-23T10:46:13.838Z,16.1
2023-03-23T10:47:12.604Z,16.2
2023-03-23T10:48:13.594Z,16.4
2023-03-23T10:49:14.681Z,16.5
2023-03-23T10:50:15.648Z,16.6
2023-03-23T10:51:16.605Z,16.7
2023-03-23T10:52:17.628Z,16.7
2023-03-23T10:53:18.617Z,16.8
2023-03-23T10:54:19.602Z,16.9
2023-03-23T10:55:20.651Z,17
2023-03-23T10:56:21.615Z,17.1
2023-03-23T10:57:22.581Z,17.2
2023-03-23T10:58:23.587Z,17.2
2023-03-23T10:59:24.584Z,17
2023-03-23T11:00:25.562Z,16.8
2023-03-23T11:01:26.625Z,16.7
2023-03-23T11:02:29.600Z,16.8
2023-03-23T11:03:28.589Z,17
2023-03-23T11:04:29.561Z,17
2023-03-23T11:05:30.586Z,17.2
2023-03-23T11:06:31.567Z,17.4
2023-03-23T11:07:32.586Z,17.7
2023-03-23T11:08:33.630Z,17.8
2023-03-23T11:09:34.580Z,17.9
2023-03-23T11:10:35.584Z,17.9
2023-03-23T11:11:36.593Z,17.8
2023-03-23T11:12:37.574Z,17.7
2023-03-23T11:13:38.568Z,17.7
2023-03-23T11:14:39.584Z,17.5
2023-03-23T11:15:40.619Z,17.4
2023-03-23T11:16:41.602Z,17.3
2023-03-23T11:17:42.636Z,17.2
2023-03-23T11:18:43.601Z,17.2
2023-03-23T11:19:45.539Z,17.2
2023-03-23T11:20:45.601Z,17.2
2023-03-23T11:21:46.568Z,17.3
2023-03-23T11:22:47.606Z,17.3
2023-03-23T11:23:50.055Z,17.3
2023-03-23T11:24:49.639Z,17.3
2023-03-23T11:25:50.601Z,17.2
2023-03-23T11:26:58.508Z,17.2
2023-03-23T11:27:52.585Z,17.2
2023-03-23T11:28:53.574Z,17.2
2023-03-23T11:29:58.362Z,17.1
2023-03-23T11:30:55.680Z,17
2023-03-23T11:31:56.600Z,16.7
2023-03-23T11:32:57.640Z,16.6
2023-03-23T11:34:05.760Z,16.6
2023-03-23T11:35:10.458Z,16.6
2023-03-23T11:36:00.635Z,16.6
2023-03-23T11:37:01.708Z,16.6
2023-03-23T11:38:02.657Z,16.6
2023-03-23T11:39:03.599Z,16.6
2023-03-23T11:40:04.619Z,16.5
2023-03-23T11:41:05.659Z,16.6
2023-03-23T11:42:09.403Z,16.7
2023-03-23T11:43:07.642Z,16.7
2023-03-23T11:44:08.659Z,16.7
2023-03-23T11:45:09.663Z,16.7
2023-03-23T11:46:10.672Z,16.7
2023-03-23T11:47:11.661Z,16.8
2023-03-23T11:48:12.639Z,16.8
2023-03-23T11:49:23.337Z,16.8
2023-03-23T11:50:14.589Z,16.9
2023-03-23T11:51:15.599Z,17
2023-03-23T11:52:16.680Z,17.1
2023-03-23T11:53:17.647Z,17.3
2023-03-23T11:54:18.683Z,17.3
2023-03-23T11:55:19.640Z,17.4
2023-03-23T11:56:20.661Z,17.4
2023-03-23T11:57:21.681Z,17.4
2023-03-23T11:58:22.594Z,17.4
2023-03-23T11:59:23.699Z,17.5
2023-03-23T12:00:24.648Z,17.5
2023-03-23T12:01:25.619Z,17.4
2023-03-23T12:02:26.638Z,17.3
2023-03-23T12:03:27.683Z,17.3
2023-03-23T12:04:28.706Z,17.2
2023-03-23T12:05:29.656Z,17
2023-03-23T12:06:30.594Z,16.9
2023-03-23T12:07:31.648Z,16.9
2023-03-23T12:08:32.696Z,16.9
2023-03-23T12:09:33.674Z,16.8
2023-03-23T12:10:35.615Z,16.8
2023-03-23T12:11:35.644Z,16.9
2023-03-23T12:12:36.616Z,16.9
2023-03-23T12:13:38.699Z,16.9
2023-03-23T12:14:38.767Z,17
2023-03-23T12:15:39.643Z,17.1
2023-03-23T12:16:40.667Z,17
2023-03-23T12:17:41.644Z,17
2023-03-23T12:18:42.677Z,17
2023-03-23T12:19:43.577Z,17
2023-03-23T12:21:45.677Z,17
2023-03-23T12:22:46.656Z,17.1
2023-03-23T12:23:47.694Z,17.1
2023-03-23T12:24:48.625Z,17
2023-03-23T12:25:49.644Z,16.8
2023-03-23T12:26:50.736Z,16.7
2023-03-23T12:27:51.637Z,16.7
2023-03-23T12:28:52.659Z,16.8
2023-03-23T12:29:53.670Z,16.8
2023-03-23T12:30:54.759Z,16.9
2023-03-23T12:31:55.634Z,16.9
2023-03-23T12:32:56.659Z,17
2023-03-23T12:33:57.687Z,17.1
2023-03-23T12:34:58.757Z,17.1
2023-03-23T12:35:59.696Z,17.1
2023-03-23T12:37:00.645Z,17.2
2023-03-23T12:38:01.718Z,17.3
2023-03-23T12:39:02.715Z,17.3
2023-03-23T12:40:03.661Z,17.3
2023-03-23T12:41:04.651Z,17.2
2023-03-23T12:42:05.640Z,17.2
2023-03-23T12:43:06.672Z,17.1
2023-03-23T12:44:07.720Z,17
2023-03-23T12:45:08.675Z,17.1
2023-03-23T12:46:09.700Z,17.2
2023-03-23T12:47:10.681Z,17.2
2023-03-23T12:48:11.628Z,17.2
2023-03-23T12:49:12.679Z,17.2
2023-03-23T12:50:13.654Z,17.2
2023-03-23T12:51:14.690Z,17.3
2023-03-23T12:52:15.654Z,17.4
2023-03-23T12:53:16.635Z,17.4
2023-03-23T12:54:17.646Z,17.4
2023-03-23T12:55:18.690Z,17.3
2023-03-23T12:56:19.662Z,17.2
2023-03-23T12:57:20.680Z,17.2
2023-03-23T12:58:21.683Z,17.3
2023-03-23T12:59:22.674Z,17.3
2023-03-23T13:00:23.647Z,17.3
2023-03-23T13:01:24.635Z,17.4
2023-03-23T13:02:25.741Z,17.3
2023-03-23T13:03:26.681Z,17.3
2023-03-23T13:04:27.653Z,17.2
2023-03-23T13:05:28.691Z,17.2
2023-03-23T13:06:32.376Z,17.3
2023-03-23T13:07:30.663Z,17.3
2023-03-23T13:08:31.674Z,17.3
2023-03-23T13:09:32.662Z,17.4
2023-03-23T13:10:33.713Z,17.5
2023-03-23T13:11:34.654Z,17.5
2023-03-23T13:12:35.666Z,17.5
2023-03-23T13:13:38.046Z,17.6
2023-03-23T13:14:37.674Z,17.6
2023-03-23T13:15:38.713Z,17.6
2023-03-23T13:16:39.663Z,17.8
2023-03-23T13:17:40.655Z,17.8
2023-03-23T13:18:41.685Z,17.9
2023-03-23T13:19:42.672Z,17.9
2023-03-23T13:20:43.694Z,17.9
2023-03-23T13:21:47.639Z,18
2023-03-23T13:22:45.697Z,18
2023-03-23T13:23:46.693Z,18
2023-03-23T13:24:47.732Z,18.1
2023-03-23T13:25:48.652Z,18.1
2023-03-23T13:26:49.752Z,18.2
2023-03-23T13:27:50.745Z,18.3
2023-03-23T13:28:51.685Z,18.3
2023-03-23T13:29:52.674Z,18.4
2023-03-23T13:30:53.655Z,18.3
2023-03-23T13:31:54.668Z,18.3
2023-03-23T13:32:57.202Z,18.4
2023-03-23T13:33:56.689Z,18.2
2023-03-23T13:34:57.673Z,18.1
2023-03-23T13:35:58.740Z,18.1
2023-03-23T13:36:59.712Z,18.2
2023-03-23T13:38:00.657Z,18.2
2023-03-23T13:39:01.693Z,18.3
2023-03-23T13:40:02.731Z,18.2